sensor_id;sensor_type;location;lat;lon;timestamp;P1;durP1;ratioP1;P2;durP2;ratioP2
67528;SDS011;54366;51.980;5.856;2023-04-19T00:02:24;10.85;;;9.65;;
67528;SDS011;54366;51.980;5.856;2023-04-19T00:04:57;10.35;;;9.00;;
67528;SDS011;54366;51.980;5.856;2023-04-19T00:07:30;9.25;;;8.35;;
67528;SDS011;54366;51.980;5.856;2023-04-19T00:09:56;9.77;;;8.73;;
67528;SDS011;54366;51.980;5.856;2023-04-19T00:12:29;10.95;;;9.85;;
67528;SDS011;54366;51.980;5.856;2023-04-19T00:15:02;11.00;;;8.75;;
67528;SDS011;54366;51.980;5.856;2023-04-19T00:17:35;9.63;;;8.63;;
67528;SDS011;54366;51.980;5.856;2023-04-19T00:20:08;9.88;;;8.95;;
67528;SDS011;54366;51.980;5.856;2023-04-19T00:22:43;10.30;;;9.32;;
67528;SDS011;54366;51.980;5.856;2023-04-19T00:25:16;10.57;;;9.30;;
67528;SDS011;54366;51.980;5.856;2023-04-19T00:27:49;10.88;;;9.68;;
67528;SDS011;54366;51.980;5.856;2023-04-19T00:30:22;9.88;;;8.88;;
67528;SDS011;54366;51.980;5.856;2023-04-19T00:32:50;11.57;;;10.45;;
67528;SDS011;54366;51.980;5.856;2023-04-19T00:35:23;10.90;;;9.77;;
67528;SDS011;54366;51.980;5.856;2023-04-19T00:37:51;8.90;;;8.00;;
67528;SDS011;54366;51.980;5.856;2023-04-19T00:40:24;10.35;;;9.35;;
67528;SDS011;54366;51.980;5.856;2023-04-19T00:42:50;10.15;;;8.15;;
67528;SDS011;54366;51.980;5.856;2023-04-19T00:45:23;9.48;;;8.57;;
67528;SDS011;54366;51.980;5.856;2023-04-19T00:47:57;11.55;;;10.35;;
67528;SDS011;54366;51.980;5.856;2023-04-19T00:50:31;9.85;;;8.27;;
67528;SDS011;54366;51.980;5.856;2023-04-19T00:53:04;10.48;;;9.38;;
67528;SDS011;54366;51.980;5.856;2023-04-19T00:55:38;12.07;;;10.10;;
67528;SDS011;54366;51.980;5.856;2023-04-19T00:58:06;8.77;;;7.97;;
67528;SDS011;54366;51.980;5.856;2023-04-19T01:00:40;9.90;;;8.68;;
67528;SDS011;54366;51.980;5.856;2023-04-19T01:03:13;9.57;;;8.68;;
67528;SDS011;54366;51.980;5.856;2023-04-19T01:05:50;11.27;;;10.07;;
67528;SDS011;54366;51.980;5.856;2023-04-19T01:08:23;9.73;;;8.73;;
67528;SDS011;54366;51.980;5.856;2023-04-19T01:10:56;8.73;;;7.85;;
67528;SDS011;54366;51.980;5.856;2023-04-19T01:13:29;10.13;;;8.45;;
67528;SDS011;54366;51.980;5.856;2023-04-19T01:16:02;9.05;;;8.00;;
67528;SDS011;54366;51.980;5.856;2023-04-19T01:18:35;8.70;;;7.82;;
67528;SDS011;54366;51.980;5.856;2023-04-19T01:21:04;9.23;;;8.20;;
67528;SDS011;54366;51.980;5.856;2023-04-19T01:23:38;11.80;;;10.60;;
67528;SDS011;54366;51.980;5.856;2023-04-19T01:26:05;10.05;;;9.07;;
67528;SDS011;54366;51.980;5.856;2023-04-19T01:28:38;10.07;;;8.50;;
67528;SDS011;54366;51.980;5.856;2023-04-19T01:31:11;11.35;;;9.52;;
67528;SDS011;54366;51.980;5.856;2023-04-19T01:33:44;10.73;;;9.75;;
67528;SDS011;54366;51.980;5.856;2023-04-19T01:36:17;10.38;;;9.35;;
67528;SDS011;54366;51.980;5.856;2023-04-19T01:38:50;9.77;;;8.30;;
67528;SDS011;54366;51.980;5.856;2023-04-19T01:41:29;9.82;;;8.82;;
67528;SDS011;54366;51.980;5.856;2023-04-19T01:44:09;11.00;;;9.75;;
67528;SDS011;54366;51.980;5.856;2023-04-19T01:46:42;9.15;;;8.25;;
67528;SDS011;54366;51.980;5.856;2023-04-19T01:49:15;8.43;;;7.63;;
67528;SDS011;54366;51.980;5.856;2023-04-19T01:51:48;10.20;;;8.73;;
67528;SDS011;54366;51.980;5.856;2023-04-19T01:54:21;9.18;;;8.27;;
67528;SDS011;54366;51.980;5.856;2023-04-19T01:56:49;9.65;;;8.63;;
67528;SDS011;54366;51.980;5.856;2023-04-19T01:59:21;8.90;;;8.00;;
67528;SDS011;54366;51.980;5.856;2023-04-19T02:01:54;9.35;;;8.38;;
67528;SDS011;54366;51.980;5.856;2023-04-19T02:04:27;10.75;;;9.63;;
67528;SDS011;54366;51.980;5.856;2023-04-19T02:07:00;9.82;;;8.30;;
67528;SDS011;54366;51.980;5.856;2023-04-19T02:09:34;8.48;;;7.60;;
67528;SDS011;54366;51.980;5.856;2023-04-19T02:12:07;8.88;;;7.63;;
67528;SDS011;54366;51.980;5.856;2023-04-19T02:14:42;8.68;;;7.78;;
67528;SDS011;54366;51.980;5.856;2023-04-19T02:17:15;9.30;;;7.97;;
67528;SDS011;54366;51.980;5.856;2023-04-19T02:19:50;8.25;;;7.40;;
67528;SDS011;54366;51.980;5.856;2023-04-19T02:22:23;8.93;;;7.88;;
67528;SDS011;54366;51.980;5.856;2023-04-19T02:24:49;8.75;;;7.20;;
67528;SDS011;54366;51.980;5.856;2023-04-19T02:27:29;8.07;;;7.28;;
67528;SDS011;54366;51.980;5.856;2023-04-19T02:30:02;8.32;;;7.47;;
67528;SDS011;54366;51.980;5.856;2023-04-19T02:32:35;8.25;;;6.55;;
67528;SDS011;54366;51.980;5.856;2023-04-19T02:35:08;7.90;;;7.00;;
67528;SDS011;54366;51.980;5.856;2023-04-19T02:37:43;7.97;;;7.18;;
67528;SDS011;54366;51.980;5.856;2023-04-19T02:40:15;7.93;;;7.13;;
67528;SDS011;54366;51.980;5.856;2023-04-19T02:42:55;8.00;;;7.20;;
67528;SDS011;54366;51.980;5.856;2023-04-19T02:45:28;8.15;;;7.30;;
67528;SDS011;54366;51.980;5.856;2023-04-19T02:47:55;8.10;;;7.15;;
67528;SDS011;54366;51.980;5.856;2023-04-19T02:50:27;7.55;;;6.78;;
67528;SDS011;54366;51.980;5.856;2023-04-19T02:53:00;7.53;;;6.72;;
67528;SDS011;54366;51.980;5.856;2023-04-19T02:55:35;9.98;;;8.00;;
67528;SDS011;54366;51.980;5.856;2023-04-19T02:58:08;7.22;;;6.53;;
67528;SDS011;54366;51.980;5.856;2023-04-19T03:00:52;7.72;;;6.65;;
67528;SDS011;54366;51.980;5.856;2023-04-19T03:03:25;8.63;;;7.00;;
67528;SDS011;54366;51.980;5.856;2023-04-19T03:05:52;9.52;;;7.38;;
67528;SDS011;54366;51.980;5.856;2023-04-19T03:08:26;10.35;;;7.82;;
67528;SDS011;54366;51.980;5.856;2023-04-19T03:10:59;7.18;;;6.47;;
67528;SDS011;54366;51.980;5.856;2023-04-19T03:13:25;8.00;;;6.70;;
67528;SDS011;54366;51.980;5.856;2023-04-19T03:15:58;8.10;;;6.80;;
67528;SDS011;54366;51.980;5.856;2023-04-19T03:18:25;7.35;;;6.55;;
67528;SDS011;54366;51.980;5.856;2023-04-19T03:23:42;8.70;;;7.50;;
67528;SDS011;54366;51.980;5.856;2023-04-19T03:26:15;6.90;;;6.20;;
67528;SDS011;54366;51.980;5.856;2023-04-19T03:28:45;7.60;;;6.80;;
67528;SDS011;54366;51.980;5.856;2023-04-19T03:31:27;8.68;;;7.18;;
67528;SDS011;54366;51.980;5.856;2023-04-19T03:34:00;8.13;;;6.68;;
67528;SDS011;54366;51.980;5.856;2023-04-19T03:36:39;9.35;;;6.55;;
67528;SDS011;54366;51.980;5.856;2023-04-19T03:39:12;7.68;;;6.40;;
67528;SDS011;54366;51.980;5.856;2023-04-19T03:41:49;7.55;;;6.63;;
67528;SDS011;54366;51.980;5.856;2023-04-19T03:44:47;7.45;;;6.70;;
67528;SDS011;54366;51.980;5.856;2023-04-19T03:47:21;6.60;;;6.00;;
67528;SDS011;54366;51.980;5.856;2023-04-19T03:49:53;7.53;;;6.70;;
67528;SDS011;54366;51.980;5.856;2023-04-19T03:52:28;7.85;;;6.35;;
67528;SDS011;54366;51.980;5.856;2023-04-19T03:55:01;7.38;;;6.68;;
67528;SDS011;54366;51.980;5.856;2023-04-19T03:57:38;8.77;;;7.28;;
67528;SDS011;54366;51.980;5.856;2023-04-19T04:00:31;7.03;;;6.25;;
67528;SDS011;54366;51.980;5.856;2023-04-19T04:03:03;7.13;;;6.43;;
67528;SDS011;54366;51.980;5.856;2023-04-19T04:05:37;7.83;;;6.00;;
67528;SDS011;54366;51.980;5.856;2023-04-19T04:08:09;8.43;;;6.80;;
67528;SDS011;54366;51.980;5.856;2023-04-19T04:10:42;7.75;;;6.95;;
67528;SDS011;54366;51.980;5.856;2023-04-19T04:13:16;7.05;;;6.35;;
67528;SDS011;54366;51.980;5.856;2023-04-19T04:16:02;6.82;;;6.15;;
67528;SDS011;54366;51.980;5.856;2023-04-19T04:18:36;5.95;;;5.35;;
67528;SDS011;54366;51.980;5.856;2023-04-19T04:21:11;7.75;;;6.15;;
67528;SDS011;54366;51.980;5.856;2023-04-19T04:23:46;7.25;;;6.07;;
67528;SDS011;54366;51.980;5.856;2023-04-19T04:26:28;6.93;;;5.53;;
67528;SDS011;54366;51.980;5.856;2023-04-19T04:29:20;5.85;;;5.22;;
67528;SDS011;54366;51.980;5.856;2023-04-19T04:31:55;6.22;;;5.63;;
67528;SDS011;54366;51.980;5.856;2023-04-19T04:34:38;5.40;;;4.85;;
67528;SDS011;54366;51.980;5.856;2023-04-19T04:37:17;6.40;;;5.38;;
67528;SDS011;54366;51.980;5.856;2023-04-19T04:39:51;6.63;;;5.00;;
67528;SDS011;54366;51.980;5.856;2023-04-19T04:42:24;6.68;;;5.70;;
67528;SDS011;54366;51.980;5.856;2023-04-19T04:44:57;6.40;;;5.75;;
67528;SDS011;54366;51.980;5.856;2023-04-19T04:47:38;6.07;;;5.47;;
67528;SDS011;54366;51.980;5.856;2023-04-19T04:50:05;8.20;;;6.38;;
67528;SDS011;54366;51.980;5.856;2023-04-19T04:52:38;8.07;;;6.50;;
67528;SDS011;54366;51.980;5.856;2023-04-19T04:55:16;7.70;;;6.10;;
67528;SDS011;54366;51.980;5.856;2023-04-19T04:57:49;7.85;;;6.00;;
67528;SDS011;54366;51.980;5.856;2023-04-19T05:00:40;6.63;;;5.20;;
67528;SDS011;54366;51.980;5.856;2023-04-19T05:03:13;7.13;;;6.00;;
67528;SDS011;54366;51.980;5.856;2023-04-19T05:05:46;7.55;;;6.13;;
67528;SDS011;54366;51.980;5.856;2023-04-19T05:08:19;6.88;;;5.45;;
67528;SDS011;54366;51.980;5.856;2023-04-19T05:10:56;6.95;;;6.25;;
67528;SDS011;54366;51.980;5.856;2023-04-19T05:16:03;7.10;;;6.30;;
67528;SDS011;54366;51.980;5.856;2023-04-19T05:21:10;5.75;;;5.15;;
67528;SDS011;54366;51.980;5.856;2023-04-19T05:23:44;6.15;;;5.60;;
67528;SDS011;54366;51.980;5.856;2023-04-19T05:26:16;8.32;;;6.30;;
67528;SDS011;54366;51.980;5.856;2023-04-19T05:28:52;6.28;;;5.68;;
67528;SDS011;54366;51.980;5.856;2023-04-19T05:31:41;6.22;;;5.63;;
67528;SDS011;54366;51.980;5.856;2023-04-19T05:34:23;6.22;;;5.63;;
67528;SDS011;54366;51.980;5.856;2023-04-19T05:39:30;6.40;;;5.75;;
67528;SDS011;54366;51.980;5.856;2023-04-19T05:42:09;6.60;;;5.57;;
67528;SDS011;54366;51.980;5.856;2023-04-19T05:44:42;7.85;;;5.93;;
67528;SDS011;54366;51.980;5.856;2023-04-19T05:47:09;6.30;;;5.57;;
67528;SDS011;54366;51.980;5.856;2023-04-19T05:50:01;7.63;;;5.75;;
67528;SDS011;54366;51.980;5.856;2023-04-19T05:52:38;6.15;;;5.40;;
67528;SDS011;54366;51.980;5.856;2023-04-19T05:55:10;6.63;;;5.82;;
67528;SDS011;54366;51.980;5.856;2023-04-19T05:57:41;5.93;;;5.32;;
67528;SDS011;54366;51.980;5.856;2023-04-19T06:00:14;7.13;;;5.30;;
67528;SDS011;54366;51.980;5.856;2023-04-19T06:02:57;5.88;;;5.28;;
67528;SDS011;54366;51.980;5.856;2023-04-19T06:05:30;5.82;;;5.22;;
67528;SDS011;54366;51.980;5.856;2023-04-19T06:08:03;6.90;;;5.30;;
67528;SDS011;54366;51.980;5.856;2023-04-19T06:10:36;6.70;;;4.88;;
67528;SDS011;54366;51.980;5.856;2023-04-19T06:13:09;6.68;;;4.93;;
67528;SDS011;54366;51.980;5.856;2023-04-19T06:15:42;7.00;;;5.35;;
67528;SDS011;54366;51.980;5.856;2023-04-19T06:18:15;5.15;;;4.72;;
67528;SDS011;54366;51.980;5.856;2023-04-19T06:20:48;6.20;;;4.97;;
67528;SDS011;54366;51.980;5.856;2023-04-19T06:23:21;4.93;;;4.43;;
67528;SDS011;54366;51.980;5.856;2023-04-19T06:25:48;5.43;;;4.47;;
67528;SDS011;54366;51.980;5.856;2023-04-19T06:28:20;5.72;;;4.55;;
67528;SDS011;54366;51.980;5.856;2023-04-19T06:30:46;6.47;;;5.03;;
67528;SDS011;54366;51.980;5.856;2023-04-19T06:33:19;5.25;;;4.53;;
67528;SDS011;54366;51.980;5.856;2023-04-19T06:35:52;5.18;;;4.72;;
67528;SDS011;54366;51.980;5.856;2023-04-19T06:38:25;5.07;;;4.57;;
67528;SDS011;54366;51.980;5.856;2023-04-19T06:40:58;6.15;;;4.88;;
67528;SDS011;54366;51.980;5.856;2023-04-19T06:43:24;5.20;;;4.70;;
67528;SDS011;54366;51.980;5.856;2023-04-19T06:45:58;4.68;;;4.20;;
67528;SDS011;54366;51.980;5.856;2023-04-19T06:48:24;5.85;;;4.38;;
67528;SDS011;54366;51.980;5.856;2023-04-19T06:50:59;4.15;;;3.75;;
67528;SDS011;54366;51.980;5.856;2023-04-19T06:53:25;6.05;;;3.78;;
67528;SDS011;54366;51.980;5.856;2023-04-19T06:55:59;6.55;;;4.40;;
67528;SDS011;54366;51.980;5.856;2023-04-19T06:58:32;4.13;;;3.72;;
67528;SDS011;54366;51.980;5.856;2023-04-19T07:00:58;4.38;;;3.97;;
67528;SDS011;54366;51.980;5.856;2023-04-19T07:03:32;5.18;;;3.80;;
67528;SDS011;54366;51.980;5.856;2023-04-19T07:06:05;4.82;;;3.65;;
67528;SDS011;54366;51.980;5.856;2023-04-19T07:08:38;4.30;;;3.83;;
67528;SDS011;54366;51.980;5.856;2023-04-19T07:11:11;4.20;;;3.33;;
67528;SDS011;54366;51.980;5.856;2023-04-19T07:13:44;4.68;;;3.15;;
67528;SDS011;54366;51.980;5.856;2023-04-19T07:16:10;5.55;;;3.55;;
67528;SDS011;54366;51.980;5.856;2023-04-19T07:18:45;3.10;;;2.80;;
67528;SDS011;54366;51.980;5.856;2023-04-19T07:21:11;2.90;;;2.50;;
67528;SDS011;54366;51.980;5.856;2023-04-19T07:23:45;5.63;;;3.08;;
67528;SDS011;54366;51.980;5.856;2023-04-19T07:26:18;3.38;;;2.47;;
67528;SDS011;54366;51.980;5.856;2023-04-19T07:28:51;4.63;;;3.40;;
67528;SDS011;54366;51.980;5.856;2023-04-19T07:31:24;3.25;;;2.85;;
67528;SDS011;54366;51.980;5.856;2023-04-19T07:33:58;3.53;;;2.47;;
67528;SDS011;54366;51.980;5.856;2023-04-19T07:36:24;4.20;;;2.58;;
67528;SDS011;54366;51.980;5.856;2023-04-19T07:38:57;2.92;;;2.60;;
67528;SDS011;54366;51.980;5.856;2023-04-19T07:41:31;3.97;;;2.70;;
67528;SDS011;54366;51.980;5.856;2023-04-19T07:44:03;3.55;;;2.65;;
67528;SDS011;54366;51.980;5.856;2023-04-19T07:46:44;3.85;;;2.10;;
67528;SDS011;54366;51.980;5.856;2023-04-19T07:49:17;3.95;;;2.45;;
67528;SDS011;54366;51.980;5.856;2023-04-19T07:51:50;3.38;;;2.60;;
67528;SDS011;54366;51.980;5.856;2023-04-19T07:54:16;3.55;;;2.30;;
67528;SDS011;54366;51.980;5.856;2023-04-19T07:56:51;3.28;;;2.55;;
67528;SDS011;54366;51.980;5.856;2023-04-19T07:59:24;4.85;;;2.65;;
67528;SDS011;54366;51.980;5.856;2023-04-19T08:01:57;3.58;;;2.40;;
67528;SDS011;54366;51.980;5.856;2023-04-19T08:04:30;3.72;;;2.67;;
67528;SDS011;54366;51.980;5.856;2023-04-19T08:07:03;4.32;;;2.22;;
67528;SDS011;54366;51.980;5.856;2023-04-19T08:09:30;2.97;;;2.38;;
67528;SDS011;54366;51.980;5.856;2023-04-19T08:12:04;2.30;;;2.10;;
67528;SDS011;54366;51.980;5.856;2023-04-19T08:14:37;4.10;;;2.63;;
67528;SDS011;54366;51.980;5.856;2023-04-19T08:17:11;2.92;;;2.22;;
67528;SDS011;54366;51.980;5.856;2023-04-19T08:19:44;2.58;;;1.80;;
67528;SDS011;54366;51.980;5.856;2023-04-19T08:22:10;4.50;;;1.92;;
67528;SDS011;54366;51.980;5.856;2023-04-19T08:24:43;3.45;;;2.08;;
67528;SDS011;54366;51.980;5.856;2023-04-19T08:27:16;2.42;;;2.08;;
67528;SDS011;54366;51.980;5.856;2023-04-19T08:29:49;1.70;;;1.27;;
67528;SDS011;54366;51.980;5.856;2023-04-19T08:32:37;2.03;;;1.60;;
67528;SDS011;54366;51.980;5.856;2023-04-19T08:35:09;3.47;;;1.92;;
67528;SDS011;54366;51.980;5.856;2023-04-19T08:37:49;1.75;;;1.30;;
67528;SDS011;54366;51.980;5.856;2023-04-19T08:40:22;2.13;;;1.40;;
67528;SDS011;54366;51.980;5.856;2023-04-19T08:43:04;2.78;;;1.35;;
67528;SDS011;54366;51.980;5.856;2023-04-19T08:45:38;1.35;;;1.25;;
67528;SDS011;54366;51.980;5.856;2023-04-19T08:48:13;1.80;;;1.45;;
67528;SDS011;54366;51.980;5.856;2023-04-19T08:50:47;2.05;;;1.00;;
67528;SDS011;54366;51.980;5.856;2023-04-19T08:53:21;2.38;;;1.35;;
67528;SDS011;54366;51.980;5.856;2023-04-19T08:55:54;10.98;;;1.38;;
67528;SDS011;54366;51.980;5.856;2023-04-19T08:58:29;3.58;;;0.98;;
67528;SDS011;54366;51.980;5.856;2023-04-19T09:00:57;8.55;;;1.30;;
67528;SDS011;54366;51.980;5.856;2023-04-19T09:03:30;1.98;;;0.88;;
67528;SDS011;54366;51.980;5.856;2023-04-19T09:05:57;1.20;;;0.88;;
67528;SDS011;54366;51.980;5.856;2023-04-19T09:08:32;2.72;;;0.85;;
67528;SDS011;54366;51.980;5.856;2023-04-19T09:11:05;3.55;;;0.98;;
67528;SDS011;54366;51.980;5.856;2023-04-19T09:13:32;1.95;;;1.02;;
67528;SDS011;54366;51.980;5.856;2023-04-19T09:16:22;2.63;;;0.88;;
67528;SDS011;54366;51.980;5.856;2023-04-19T09:18:55;3.30;;;1.00;;
67528;SDS011;54366;51.980;5.856;2023-04-19T09:21:27;2.33;;;1.08;;
67528;SDS011;54366;51.980;5.856;2023-04-19T09:24:01;1.55;;;0.90;;
67528;SDS011;54366;51.980;5.856;2023-04-19T09:26:34;1.88;;;0.98;;
67528;SDS011;54366;51.980;5.856;2023-04-19T09:29:07;1.70;;;1.15;;
67528;SDS011;54366;51.980;5.856;2023-04-19T09:31:42;2.72;;;1.27;;
67528;SDS011;54366;51.980;5.856;2023-04-19T09:34:28;1.70;;;1.13;;
67528;SDS011;54366;51.980;5.856;2023-04-19T09:37:11;1.25;;;1.10;;
67528;SDS011;54366;51.980;5.856;2023-04-19T09:39:44;1.80;;;1.38;;
67528;SDS011;54366;51.980;5.856;2023-04-19T09:42:17;2.80;;;1.33;;
67528;SDS011;54366;51.980;5.856;2023-04-19T09:44:55;2.42;;;1.08;;
67528;SDS011;54366;51.980;5.856;2023-04-19T09:47:36;2.45;;;1.10;;
67528;SDS011;54366;51.980;5.856;2023-04-19T09:50:10;0.98;;;0.80;;
67528;SDS011;54366;51.980;5.856;2023-04-19T09:52:43;1.67;;;1.05;;
67528;SDS011;54366;51.980;5.856;2023-04-19T09:55:19;1.40;;;1.15;;
67528;SDS011;54366;51.980;5.856;2023-04-19T09:57:53;1.45;;;1.00;;
67528;SDS011;54366;51.980;5.856;2023-04-19T10:00:26;4.72;;;1.00;;
67528;SDS011;54366;51.980;5.856;2023-04-19T10:02:59;1.63;;;0.88;;
67528;SDS011;54366;51.980;5.856;2023-04-19T10:05:26;1.30;;;0.82;;
67528;SDS011;54366;51.980;5.856;2023-04-19T10:07:59;1.27;;;1.00;;
67528;SDS011;54366;51.980;5.856;2023-04-19T10:10:33;3.60;;;1.10;;
67528;SDS011;54366;51.980;5.856;2023-04-19T10:13:07;1.33;;;0.90;;
67528;SDS011;54366;51.980;5.856;2023-04-19T10:15:42;1.70;;;1.15;;
67528;SDS011;54366;51.980;5.856;2023-04-19T10:18:16;3.05;;;1.00;;
67528;SDS011;54366;51.980;5.856;2023-04-19T10:20:54;2.40;;;1.10;;
67528;SDS011;54366;51.980;5.856;2023-04-19T10:23:32;1.75;;;0.90;;
67528;SDS011;54366;51.980;5.856;2023-04-19T10:26:06;2.25;;;1.02;;
67528;SDS011;54366;51.980;5.856;2023-04-19T10:28:34;2.00;;;0.95;;
67528;SDS011;54366;51.980;5.856;2023-04-19T10:31:10;1.90;;;1.00;;
67528;SDS011;54366;51.980;5.856;2023-04-19T10:33:46;2.05;;;1.00;;
67528;SDS011;54366;51.980;5.856;2023-04-19T10:36:19;1.10;;;0.93;;
67528;SDS011;54366;51.980;5.856;2023-04-19T10:38:52;0.77;;;0.60;;
67528;SDS011;54366;51.980;5.856;2023-04-19T10:41:20;2.90;;;1.50;;
67528;SDS011;54366;51.980;5.856;2023-04-19T10:46:42;2.60;;;1.27;;
67528;SDS011;54366;51.980;5.856;2023-04-19T10:49:15;1.35;;;1.05;;
67528;SDS011;54366;51.980;5.856;2023-04-19T10:51:46;2.20;;;1.48;;
67528;SDS011;54366;51.980;5.856;2023-04-19T10:54:32;2.28;;;1.42;;
67528;SDS011;54366;51.980;5.856;2023-04-19T10:57:06;2.45;;;1.30;;
67528;SDS011;54366;51.980;5.856;2023-04-19T10:59:41;1.38;;;1.13;;
67528;SDS011;54366;51.980;5.856;2023-04-19T11:05:14;2.00;;;1.30;;
67528;SDS011;54366;51.980;5.856;2023-04-19T11:07:47;2.03;;;1.55;;
67528;SDS011;54366;51.980;5.856;2023-04-19T11:10:27;1.40;;;1.30;;
67528;SDS011;54366;51.980;5.856;2023-04-19T11:13:02;1.92;;;1.10;;
67528;SDS011;54366;51.980;5.856;2023-04-19T11:15:41;1.67;;;1.50;;
67528;SDS011;54366;51.980;5.856;2023-04-19T11:18:17;1.27;;;1.10;;
67528;SDS011;54366;51.980;5.856;2023-04-19T11:20:51;1.55;;;1.17;;
67528;SDS011;54366;51.980;5.856;2023-04-19T11:23:19;1.60;;;1.27;;
67528;SDS011;54366;51.980;5.856;2023-04-19T11:25:51;2.92;;;1.88;;
67528;SDS011;54366;51.980;5.856;2023-04-19T11:28:18;9.02;;;6.05;;
67528;SDS011;54366;51.980;5.856;2023-04-19T11:30:52;2.17;;;1.45;;
67528;SDS011;54366;51.980;5.856;2023-04-19T11:33:26;1.90;;;1.17;;
67528;SDS011;54366;51.980;5.856;2023-04-19T11:36:10;1.40;;;1.30;;
67528;SDS011;54366;51.980;5.856;2023-04-19T11:38:47;2.90;;;1.38;;
67528;SDS011;54366;51.980;5.856;2023-04-19T11:41:20;2.53;;;1.65;;
67528;SDS011;54366;51.980;5.856;2023-04-19T11:44:00;4.40;;;1.88;;
67528;SDS011;54366;51.980;5.856;2023-04-19T11:46:39;2.40;;;1.60;;
67528;SDS011;54366;51.980;5.856;2023-04-19T11:49:06;3.45;;;1.70;;
67528;SDS011;54366;51.980;5.856;2023-04-19T11:51:41;1.63;;;1.23;;
67528;SDS011;54366;51.980;5.856;2023-04-19T11:54:14;2.08;;;1.90;;
67528;SDS011;54366;51.980;5.856;2023-04-19T11:59:37;1.70;;;1.60;;
67528;SDS011;54366;51.980;5.856;2023-04-19T12:02:11;4.25;;;1.60;;
67528;SDS011;54366;51.980;5.856;2023-04-19T12:04:37;3.13;;;1.70;;
67528;SDS011;54366;51.980;5.856;2023-04-19T12:07:10;1.88;;;1.65;;
67528;SDS011;54366;51.980;5.856;2023-04-19T12:09:43;4.28;;;1.30;;
67528;SDS011;54366;51.980;5.856;2023-04-19T12:12:30;3.13;;;1.98;;
67528;SDS011;54366;51.980;5.856;2023-04-19T12:15:04;2.75;;;1.48;;
67528;SDS011;54366;51.980;5.856;2023-04-19T12:17:54;2.33;;;1.60;;
67528;SDS011;54366;51.980;5.856;2023-04-19T12:20:33;5.35;;;1.65;;
67528;SDS011;54366;51.980;5.856;2023-04-19T12:23:00;2.80;;;1.50;;
67528;SDS011;54366;51.980;5.856;2023-04-19T12:25:34;2.55;;;1.75;;
67528;SDS011;54366;51.980;5.856;2023-04-19T12:28:04;2.20;;;1.70;;
67528;SDS011;54366;51.980;5.856;2023-04-19T12:30:36;1.58;;;1.48;;
67528;SDS011;54366;51.980;5.856;2023-04-19T12:33:03;2.72;;;1.90;;
67528;SDS011;54366;51.980;5.856;2023-04-19T12:35:37;2.03;;;1.90;;
67528;SDS011;54366;51.980;5.856;2023-04-19T12:38:04;2.97;;;1.50;;
67528;SDS011;54366;51.980;5.856;2023-04-19T12:40:37;1.70;;;1.60;;
67528;SDS011;54366;51.980;5.856;2023-04-19T12:43:04;2.45;;;1.90;;
67528;SDS011;54366;51.980;5.856;2023-04-19T12:45:38;2.63;;;1.90;;
67528;SDS011;54366;51.980;5.856;2023-04-19T12:48:11;1.67;;;1.52;;
67528;SDS011;54366;51.980;5.856;2023-04-19T12:50:44;3.30;;;2.15;;
67528;SDS011;54366;51.980;5.856;2023-04-19T12:53:11;6.07;;;2.20;;
67528;SDS011;54366;51.980;5.856;2023-04-19T12:55:43;2.38;;;2.00;;
67528;SDS011;54366;51.980;5.856;2023-04-19T12:58:18;2.65;;;2.20;;
67528;SDS011;54366;51.980;5.856;2023-04-19T13:00:45;2.95;;;2.25;;
67528;SDS011;54366;51.980;5.856;2023-04-19T13:03:18;2.35;;;1.83;;
67528;SDS011;54366;51.980;5.856;2023-04-19T13:05:51;2.63;;;1.90;;
67528;SDS011;54366;51.980;5.856;2023-04-19T13:08:18;3.05;;;1.77;;
67528;SDS011;54366;51.980;5.856;2023-04-19T13:10:54;2.13;;;1.92;;
67528;SDS011;54366;51.980;5.856;2023-04-19T13:13:27;2.75;;;2.22;;
67528;SDS011;54366;51.980;5.856;2023-04-19T13:15:54;2.83;;;1.98;;
67528;SDS011;54366;51.980;5.856;2023-04-19T13:18:26;2.00;;;1.80;;
67528;SDS011;54366;51.980;5.856;2023-04-19T13:20:59;2.85;;;2.00;;
67528;SDS011;54366;51.980;5.856;2023-04-19T13:23:32;1.92;;;1.60;;
67528;SDS011;54366;51.980;5.856;2023-04-19T13:26:05;2.45;;;1.88;;
67528;SDS011;54366;51.980;5.856;2023-04-19T13:28:39;2.92;;;1.88;;
67528;SDS011;54366;51.980;5.856;2023-04-19T13:31:12;3.25;;;1.52;;
67528;SDS011;54366;51.980;5.856;2023-04-19T13:33:45;2.75;;;1.83;;
67528;SDS011;54366;51.980;5.856;2023-04-19T13:36:12;1.88;;;1.30;;
67528;SDS011;54366;51.980;5.856;2023-04-19T13:38:44;3.03;;;1.60;;
67528;SDS011;54366;51.980;5.856;2023-04-19T13:41:11;2.60;;;1.80;;
67528;SDS011;54366;51.980;5.856;2023-04-19T13:43:51;1.63;;;1.50;;
67528;SDS011;54366;51.980;5.856;2023-04-19T13:46:23;2.15;;;1.67;;
67528;SDS011;54366;51.980;5.856;2023-04-19T13:49:03;2.42;;;1.67;;
67528;SDS011;54366;51.980;5.856;2023-04-19T13:51:36;2.67;;;1.50;;
67528;SDS011;54366;51.980;5.856;2023-04-19T13:54:03;2.55;;;1.60;;
67528;SDS011;54366;51.980;5.856;2023-04-19T13:56:35;3.00;;;1.63;;
67528;SDS011;54366;51.980;5.856;2023-04-19T13:59:08;3.70;;;1.98;;
67528;SDS011;54366;51.980;5.856;2023-04-19T14:01:41;2.25;;;1.70;;
67528;SDS011;54366;51.980;5.856;2023-04-19T14:04:14;2.47;;;1.95;;
67528;SDS011;54366;51.980;5.856;2023-04-19T14:06:47;2.10;;;1.70;;
67528;SDS011;54366;51.980;5.856;2023-04-19T14:09:20;2.25;;;1.83;;
67528;SDS011;54366;51.980;5.856;2023-04-19T14:11:53;2.30;;;1.83;;
67528;SDS011;54366;51.980;5.856;2023-04-19T14:14:26;14.50;;;2.35;;
67528;SDS011;54366;51.980;5.856;2023-04-19T14:16:59;3.10;;;1.85;;
67528;SDS011;54366;51.980;5.856;2023-04-19T14:19:32;6.72;;;2.05;;
67528;SDS011;54366;51.980;5.856;2023-04-19T14:21:59;3.13;;;2.10;;
67528;SDS011;54366;51.980;5.856;2023-04-19T14:24:31;5.25;;;1.90;;
67528;SDS011;54366;51.980;5.856;2023-04-19T14:27:04;5.32;;;2.33;;
67528;SDS011;54366;51.980;5.856;2023-04-19T14:29:31;3.10;;;1.40;;
67528;SDS011;54366;51.980;5.856;2023-04-19T14:32:03;2.47;;;1.63;;
67528;SDS011;54366;51.980;5.856;2023-04-19T14:34:36;2.05;;;1.60;;
67528;SDS011;54366;51.980;5.856;2023-04-19T14:37:09;3.83;;;2.55;;
67528;SDS011;54366;51.980;5.856;2023-04-19T14:39:45;4.90;;;1.95;;
67528;SDS011;54366;51.980;5.856;2023-04-19T14:42:12;5.50;;;2.00;;
67528;SDS011;54366;51.980;5.856;2023-04-19T14:44:51;2.97;;;1.80;;
67528;SDS011;54366;51.980;5.856;2023-04-19T14:47:23;5.65;;;2.33;;
67528;SDS011;54366;51.980;5.856;2023-04-19T14:49:56;3.95;;;2.10;;
67528;SDS011;54366;51.980;5.856;2023-04-19T14:52:23;3.47;;;1.83;;
67528;SDS011;54366;51.980;5.856;2023-04-19T14:54:56;2.13;;;1.65;;
67528;SDS011;54366;51.980;5.856;2023-04-19T14:57:30;3.67;;;1.85;;
67528;SDS011;54366;51.980;5.856;2023-04-19T14:59:57;1.80;;;1.70;;
67528;SDS011;54366;51.980;5.856;2023-04-19T15:02:29;4.70;;;1.88;;
67528;SDS011;54366;51.980;5.856;2023-04-19T15:05:02;2.00;;;1.80;;
67528;SDS011;54366;51.980;5.856;2023-04-19T15:07:36;3.13;;;1.70;;
67528;SDS011;54366;51.980;5.856;2023-04-19T15:10:09;4.45;;;2.00;;
67528;SDS011;54366;51.980;5.856;2023-04-19T15:12:42;3.05;;;2.00;;
67528;SDS011;54366;51.980;5.856;2023-04-19T15:15:15;3.35;;;2.30;;
67528;SDS011;54366;51.980;5.856;2023-04-19T15:17:48;2.40;;;1.83;;
67528;SDS011;54366;51.980;5.856;2023-04-19T15:20:15;2.53;;;1.67;;
67528;SDS011;54366;51.980;5.856;2023-04-19T15:22:48;1.58;;;1.48;;
67528;SDS011;54366;51.980;5.856;2023-04-19T15:25:15;2.10;;;1.65;;
67528;SDS011;54366;51.980;5.856;2023-04-19T15:27:47;3.20;;;1.88;;
67528;SDS011;54366;51.980;5.856;2023-04-19T15:30:20;1.92;;;1.70;;
67528;SDS011;54366;51.980;5.856;2023-04-19T15:32:53;2.22;;;1.65;;
67528;SDS011;54366;51.980;5.856;2023-04-19T15:35:26;3.45;;;2.20;;
67528;SDS011;54366;51.980;5.856;2023-04-19T15:37:59;3.20;;;2.22;;
67528;SDS011;54366;51.980;5.856;2023-04-19T15:40:32;4.40;;;3.13;;
67528;SDS011;54366;51.980;5.856;2023-04-19T15:43:09;3.15;;;1.90;;